Time;durP1;ratioP1;P1;durP2;ratioP2;P2;SDS_P1;SDS_P2;PMS_P1;PMS_P2;Temp;Humidity;BMP_temperature;BMP_pressure;BME280_temperature;BME280_humidity;BME280_pressure;Samples;Min_cycle;Max_cycle;Signal;HPM_P1;HPM_P2
2024/01/02 00:01:41;;;;;;;;;;;15.90;68.10;;;;;;7321901;19;9234;-57
2024/01/02 00:04:10;;;;;;;;;;;15.90;68.10;;;;;;7321365;19;9260;-57
2024/01/02 00:06:40;;;;;;;;;;;16.00;68.00;;;;;;7321123;19;9539;-57
2024/01/02 00:09:31;;;;;;;;;;;16.00;68.00;;;;;;7320988;19;9380;-57
2024/01/02 00:12:20;;;;;;;;;;;16.10;67.80;;;;;;7320090;19;9491;-57
2024/01/02 00:14:49;;;;;;;;;;;16.20;67.80;;;;;;7321691;19;9347;-58
2024/01/02 00:17:18;;;;;;;;;;;16.20;67.70;;;;;;7321229;19;10318;-57
2024/01/02 00:19:47;;;;;;;;;;;16.30;67.60;;;;;;7321464;19;9508;-57
2024/01/02 00:22:16;;;;;;;;;;;16.40;67.60;;;;;;7321973;19;9370;-57
2024/01/02 00:24:47;;;;;;;;;;;16.40;67.50;;;;;;7321141;19;9482;-57
2024/01/02 00:27:17;;;;;;;;;;;16.50;67.40;;;;;;7321483;19;9516;-57
2024/01/02 00:29:46;;;;;;;;;;;16.50;67.40;;;;;;7320158;19;9612;-57
2024/01/02 00:32:15;;;;;;;;;;;16.60;67.20;;;;;;7321130;19;9196;-57
2024/01/02 00:34:44;;;;;;;;;;;16.60;67.20;;;;;;7320600;19;9284;-57
2024/01/02 00:37:13;;;;;;;;;;;16.70;67.10;;;;;;7324114;19;9575;-57
2024/01/02 00:39:42;;;;;;;;;;;16.70;67.10;;;;;;7327419;19;11216;-57
2024/01/02 00:42:13;;;;;;;;;;;16.70;67.00;;;;;;7327487;19;9599;-57
2024/01/02 00:44:42;;;;;;;;;;;16.70;67.00;;;;;;7327382;19;9333;-57
2024/01/02 00:47:11;;;;;;;;;;;16.70;66.90;;;;;;7327934;19;9465;-57
2024/01/02 00:49:41;;;;;;;;;;;16.80;67.00;;;;;;7327296;19;9183;-57
2024/01/02 00:52:30;;;;;;;;;;;16.70;66.90;;;;;;7325693;19;9666;-57
2024/01/02 00:54:59;;;;;;;;;;;16.70;66.80;;;;;;7327940;19;9475;-57
2024/01/02 00:57:30;;;;;;;;;;;16.70;66.80;;;;;;7326354;19;9532;-58
2024/01/02 01:00:00;;;;;;;;;;;16.70;66.90;;;;;;7327075;19;9671;-57
2024/01/02 01:02:30;;;;;;;;;;;16.70;66.90;;;;;;7325855;19;9458;-57
2024/01/02 01:05:19;;;;;;;;;;;16.70;66.90;;;;;;7325545;19;9515;-57
2024/01/02 01:07:48;;;;;;;;;;;16.60;66.90;;;;;;7327702;19;9515;-57
2024/01/02 01:10:17;;;;;;;;;;;16.60;66.90;;;;;;7326798;19;9299;-57
2024/01/02 01:12:48;;;;;;;;;;;16.60;67.00;;;;;;7327321;19;9442;-57
2024/01/02 01:15:17;;;;;;;;;;;16.50;67.00;;;;;;7327336;19;9492;-57
2024/01/02 01:17:46;;;;;;;;;;;16.50;67.10;;;;;;7327089;19;9386;-57
2024/01/02 01:20:16;;;;;;;;;;;16.40;67.20;;;;;;7326550;19;10700;-57
2024/01/02 01:22:45;;;;;;;;;;;16.40;67.20;;;;;;7326933;19;9238;-57
2024/01/02 01:25:14;;;;;;;;;;;16.40;67.30;;;;;;7325658;19;9214;-57
2024/01/02 01:27:43;;;;;;;;;;;16.30;67.40;;;;;;7326658;19;9617;-57
2024/01/02 01:30:15;;;;;;;;;;;16.30;67.40;;;;;;7326038;19;9289;-57
2024/01/02 01:33:04;;;;;;;;;;;16.20;67.50;;;;;;7323892;19;9501;-57
2024/01/02 01:35:33;;;;;;;;;;;16.20;67.50;;;;;;7326567;19;9458;-57
2024/01/02 01:38:02;;;;;;;;;;;16.10;67.60;;;;;;7325480;19;9465;-57
2024/01/02 01:40:31;;;;;;;;;;;16.10;67.70;;;;;;7326699;19;9226;-57
2024/01/02 01:43:00;;;;;;;;;;;16.10;67.70;;;;;;7325163;19;9521;-58
2024/01/02 01:45:32;;;;;;;;;;;16.10;67.80;;;;;;7326123;19;9460;-57
2024/01/02 01:48:06;;;;;;;;;;;16.00;67.80;;;;;;7324152;19;10564;-57
2024/01/02 01:50:36;;;;;;;;;;;16.00;67.90;;;;;;7326107;19;9466;-57
2024/01/02 01:53:06;;;;;;;;;;;16.00;68.00;;;;;;7325784;19;9469;-57
2024/01/02 01:55:36;;;;;;;;;;;15.90;68.00;;;;;;7325817;19;9461;-57
2024/01/02 01:58:06;;;;;;;;;;;15.90;68.00;;;;;;7325727;19;9400;-57
2024/01/02 02:00:38;;;;;;;;;;;15.90;68.10;;;;;;7325184;19;9178;-57
2024/01/02 02:03:08;;;;;;;;;;;15.90;68.10;;;;;;7325433;19;9464;-57
2024/01/02 02:05:38;;;;;;;;;;;15.90;68.10;;;;;;7325233;19;9194;-57
2024/01/02 02:08:07;;;;;;;;;;;15.90;68.10;;;;;;7325977;19;9251;-57
2024/01/02 02:10:37;;;;;;;;;;;15.90;68.00;;;;;;7321529;19;9237;-57
2024/01/02 02:13:06;;;;;;;;;;;16.00;68.10;;;;;;7324115;19;9506;-57
2024/01/02 02:15:40;;;;;;;;;;;16.00;67.90;;;;;;7325875;19;9505;-57
2024/01/02 02:18:29;;;;;;;;;;;16.10;67.90;;;;;;7323034;19;8993;-57
2024/01/02 02:20:58;;;;;;;;;;;16.20;67.80;;;;;;7324407;19;9105;-57
2024/01/02 02:23:30;;;;;;;;;;;16.20;67.70;;;;;;7324982;19;9211;-57
2024/01/02 02:26:18;;;;;;;;;;;16.30;67.60;;;;;;7322672;19;9509;-57
2024/01/02 02:28:48;;;;;;;;;;;16.40;67.50;;;;;;7325731;19;9317;-57
2024/01/02 02:31:20;;;;;;;;;;;16.40;67.40;;;;;;7324078;19;9457;-57
2024/01/02 02:33:48;;;;;;;;;;;16.50;67.40;;;;;;7324778;19;9571;-57
2024/01/02 02:36:17;;;;;;;;;;;16.50;67.30;;;;;;7324137;19;9642;-58
2024/01/02 02:38:49;;;;;;;;;;;16.60;67.20;;;;;;7325303;19;9399;-57
2024/01/02 02:41:18;;;;;;;;;;;16.60;67.10;;;;;;7323637;19;9656;-57
2024/01/02 02:43:47;;;;;;;;;;;16.60;67.10;;;;;;7324456;19;10294;-57
2024/01/02 02:46:16;;;;;;;;;;;16.60;67.00;;;;;;7324004;19;10076;-57
2024/01/02 02:48:45;;;;;;;;;;;16.70;67.00;;;;;;7325349;19;9666;-57
2024/01/02 02:51:14;;;;;;;;;;;16.70;67.10;;;;;;7323787;19;9512;-57
2024/01/02 02:53:43;;;;;;;;;;;16.70;67.00;;;;;;7324286;19;9516;-57
2024/01/02 02:56:19;;;;;;;;;;;16.70;66.90;;;;;;7322524;19;9148;-57
2024/01/02 02:58:48;;;;;;;;;;;16.70;66.90;;;;;;7324180;19;11197;-58
2024/01/02 03:01:24;;;;;;;;;;;16.70;66.90;;;;;;7320419;19;9348;-57
2024/01/02 03:03:53;;;;;;;;;;;16.60;66.90;;;;;;7324492;19;11040;-57
2024/01/02 03:06:22;;;;;;;;;;;16.60;66.90;;;;;;7323741;19;9466;-57
2024/01/02 03:08:51;;;;;;;;;;;16.60;67.00;;;;;;7323498;19;10799;-58
2024/01/02 03:11:23;;;;;;;;;;;16.50;67.00;;;;;;7323602;19;9226;-57
2024/01/02 03:13:52;;;;;;;;;;;16.50;67.00;;;;;;7323958;19;9415;-57
2024/01/02 03:16:23;;;;;;;;;;;16.50;67.10;;;;;;7323879;19;9568;-57
2024/01/02 03:18:52;;;;;;;;;;;16.40;67.10;;;;;;7323548;19;10611;-57
2024/01/02 03:21:27;;;;;;;;;;;16.40;67.20;;;;;;7323733;19;9194;-57
2024/01/02 03:23:56;;;;;;;;;;;16.40;67.30;;;;;;7323214;19;9307;-57
2024/01/02 03:26:28;;;;;;;;;;;16.30;67.90;;;;;;7324147;19;9283;-57
2024/01/02 03:28:57;;;;;;;;;;;16.30;67.30;;;;;;7323494;19;9412;-57
2024/01/02 03:31:26;;;;;;;;;;;16.30;67.40;;;;;;7323114;19;9517;-58
2024/01/02 03:33:55;;;;;;;;;;;16.20;67.50;;;;;;7322991;19;9420;-57
2024/01/02 03:36:25;;;;;;;;;;;16.20;67.60;;;;;;7323739;19;9459;-57
2024/01/02 03:38:54;;;;;;;;;;;16.10;67.50;;;;;;7323355;19;9238;-57
2024/01/02 03:41:23;;;;;;;;;;;16.10;67.70;;;;;;7323314;19;9701;-57
2024/01/02 03:43:54;;;;;;;;;;;16.10;67.80;;;;;;7322719;19;9461;-57
2024/01/02 03:46:23;;;;;;;;;;;16.00;67.80;;;;;;7321734;19;9481;-57
2024/01/02 03:48:52;;;;;;;;;;;16.00;67.80;;;;;;7323184;19;9473;-57
2024/01/02 03:51:21;;;;;;;;;;;16.00;67.90;;;;;;7322613;19;10655;-57
2024/01/02 03:53:50;;;;;;;;;;;16.00;67.90;;;;;;7322514;19;9268;-57
2024/01/02 03:56:16;;;;;;;;;;;15.90;68.00;;;;;;7321741;19;9402;-57
2024/01/02 03:58:45;;;;;;;;;;;15.90;68.00;;;;;;7322268;19;9430;-57
2024/01/02 04:01:17;;;;;;;;;;;15.90;68.00;;;;;;7321897;19;9242;-57
2024/01/02 04:03:46;;;;;;;;;;;15.90;68.10;;;;;;7321785;19;9481;-57
2024/01/02 04:06:15;;;;;;;;;;;15.90;68.10;;;;;;7320812;19;9332;-57
2024/01/02 04:08:44;;;;;;;;;;;15.90;68.10;;;;;;7322113;19;9563;-57
2024/01/02 04:11:16;;;;;;;;;;;16.00;68.00;;;;;;7322246;19;9438;-57
2024/01/02 04:13:45;;;;;;;;;;;16.00;67.90;;;;;;7328612;19;9267;-57
2024/01/02 04:16:16;;;;;;;;;;;16.10;67.90;;;;;;7329297;19;9237;-57
2024/01/02 04:18:45;;;;;;;;;;;16.10;67.80;;;;;;7328849;19;10951;-57
2024/01/02 04:21:14;;;;;;;;;;;16.20;67.80;;;;;;7328255;19;9230;-57
2024/01/02 04:23:43;;;;;;;;;;;16.30;67.70;;;;;;7328675;19;9455;-57
2024/01/02 04:26:12;;;;;;;;;;;16.30;67.60;;;;;;7328229;19;9464;-57
2024/01/02 04:28:41;;;;;;;;;;;16.40;67.50;;;;;;7327447;19;9488;-57
2024/01/02 04:31:11;;;;;;;;;;;16.40;67.40;;;;;;7328735;19;9170;-57
2024/01/02 04:33:42;;;;;;;;;;;16.50;67.30;;;;;;7327890;19;9148;-57
2024/01/02 04:36:11;;;;;;;;;;;16.60;67.30;;;;;;7328109;19;9254;-57
2024/01/02 04:38:40;;;;;;;;;;;16.60;67.20;;;;;;7327814;19;9509;-58
2024/01/02 04:41:11;;;;;;;;;;;16.70;67.20;;;;;;7327850;19;9191;-57
2024/01/02 04:43:40;;;;;;;;;;;16.70;67.10;;;;;;7327567;19;9212;-60
2024/01/02 04:46:09;;;;;;;;;;;16.70;67.00;;;;;;7327644;19;9462;-57
2024/01/02 04:48:38;;;;;;;;;;;16.70;67.00;;;;;;7327085;19;9465;-57
2024/01/02 04:51:10;;;;;;;;;;;16.70;66.90;;;;;;7327212;19;9241;-57
2024/01/02 04:53:38;;;;;;;;;;;16.70;66.90;;;;;;7327925;19;9562;-57
2024/01/02 04:56:08;;;;;;;;;;;16.70;66.90;;;;;;7327366;19;9797;-57
2024/01/02 04:58:37;;;;;;;;;;;16.70;66.90;;;;;;7327960;19;9479;-57
2024/01/02 05:01:06;;;;;;;;;;;16.70;66.90;;;;;;7326981;19;9388;-57
2024/01/02 05:03:35;;;;;;;;;;;16.70;66.90;;;;;;7326978;19;9404;-57
2024/01/02 05:06:04;;;;;;;;;;;16.70;66.90;;;;;;7326519;19;9390;-57
2024/01/02 05:08:36;;;;;;;;;;;16.60;67.00;;;;;;7327969;19;9457;-58
2024/01/02 05:11:06;;;;;;;;;;;16.60;67.00;;;;;;7326840;19;9501;-57
2024/01/02 05:13:34;;;;;;;;;;;16.60;67.10;;;;;;7327069;19;11248;-58
2024/01/02 05:16:03;;;;;;;;;;;16.50;67.10;;;;;;7326275;19;10642;-57
2024/01/02 05:18:32;;;;;;;;;;;16.50;67.10;;;;;;7327520;19;9492;-57
2024/01/02 05:21:21;;;;;;;;;;;16.40;67.20;;;;;;7325289;19;9360;-57
2024/01/02 05:23:53;;;;;;;;;;;16.40;67.30;;;;;;7324067;19;9360;-57
2024/01/02 05:26:19;;;;;;;;;;;16.40;67.30;;;;;;7327125;19;9637;-57
2024/01/02 05:28:48;;;;;;;;;;;16.30;67.40;;;;;;7326518;19;9193;-57
2024/01/02 05:31:17;;;;;;;;;;;16.30;67.50;;;;;;7326788;19;9175;-57
2024/01/02 05:33:46;;;;;;;;;;;16.20;67.50;;;;;;7326357;19;9174;-57
2024/01/02 05:36:15;;;;;;;;;;;16.20;67.60;;;;;;7326797;19;9554;-57
2024/01/02 05:38:44;;;;;;;;;;;16.20;67.60;;;;;;7325822;19;10210;-57
2024/01/02 05:41:16;;;;;;;;;;;16.10;67.60;;;;;;7326490;19;9586;-57
2024/01/02 05:43:45;;;;;;;;;;;16.10;67.70;;;;;;7325889;19;9217;-58
2024/01/02 05:46:14;;;;;;;;;;;16.10;67.80;;;;;;7326211;19;9466;-62
2024/01/02 05:48:42;;;;;;;;;;;16.00;67.80;;;;;;7324682;19;9283;-57
2024/01/02 05:51:11;;;;;;;;;;;16.00;67.90;;;;;;7326395;19;9477;-57
2024/01/02 05:53:40;;;;;;;;;;;16.00;67.90;;;;;;7326421;19;9199;-58
2024/01/02 05:56:12;;;;;;;;;;;15.90;68.00;;;;;;7325240;19;9635;-57
2024/01/02 05:58:44;;;;;;;;;;;15.90;68.00;;;;;;7326038;19;9269;-57
2024/01/02 06:01:13;;;;;;;;;;;16.00;68.10;;;;;;7324951;19;9462;-57
2024/01/02 06:03:43;;;;;;;;;;;15.90;68.10;;;;;;7325123;19;9320;-57
2024/01/02 06:06:12;;;;;;;;;;;15.90;68.10;;;;;;7325515;19;9497;-57
2024/01/02 06:08:41;;;;;;;;;;;15.90;68.10;;;;;;7325825;19;9502;-57
2024/01/02 06:11:11;;;;;;;;;;;15.90;68.10;;;;;;7324369;19;9481;-57
2024/01/02 06:13:43;;;;;;;;;;;16.00;68.10;;;;;;7325374;19;9589;-57
2024/01/02 06:16:12;;;;;;;;;;;16.00;68.10;;;;;;7325781;19;9238;-57
2024/01/02 06:18:41;;;;;;;;;;;16.00;68.00;;;;;;7325261;19;9456;-57
2024/01/02 06:21:10;;;;;;;;;;;16.10;67.90;;;;;;7324678;19;9469;-58
2024/01/02 06:23:39;;;;;;;;;;;16.20;67.90;;;;;;7324937;19;9295;-57
2024/01/02 06:26:09;;;;;;;;;;;16.20;67.80;;;;;;7325689;19;9501;-57
2024/01/02 06:28:38;;;;;;;;;;;16.30;67.70;;;;;;7324518;19;9490;-57
2024/01/02 06:31:10;;;;;;;;;;;16.40;67.60;;;;;;7325239;19;9582;-57
2024/01/02 06:33:44;;;;;;;;;;;16.40;67.60;;;;;;7323921;19;9545;-57
2024/01/02 06:36:13;;;;;;;;;;;16.50;67.50;;;;;;7324661;19;9492;-57
2024/01/02 06:39:02;;;;;;;;;;;16.50;67.40;;;;;;7323295;19;10446;-57
2024/01/02 06:41:30;;;;;;;;;;;16.60;67.30;;;;;;7324471;19;9468;-57
2024/01/02 06:43:59;;;;;;;;;;;16.60;67.20;;;;;;7324636;19;9635;-57
2024/01/02 06:46:31;;;;;;;;;;;16.70;67.20;;;;;;7323607;19;9494;-57
2024/01/02 06:49:00;;;;;;;;;;;16.70;67.10;;;;;;7325010;19;9262;-57
2024/01/02 06:51:29;;;;;;;;;;;16.70;67.10;;;;;;7323830;19;9175;-57
2024/01/02 06:53:58;;;;;;;;;;;16.70;67.00;;;;;;7324763;19;9362;-57
2024/01/02 06:56:27;;;;;;;;;;;16.70;67.00;;;;;;7322370;19;10619;-57
2024/01/02 06:59:16;;;;;;;;;;;16.70;67.00;;;;;;7322269;19;10164;-57
2024/01/02 07:01:48;;;;;;;;;;;16.70;67.00;;;;;;7323733;19;9312;-57
2024/01/02 07:04:17;;;;;;;;;;;16.70;67.00;;;;;;7323162;19;9161;-57
2024/01/02 07:06:46;;;;;;;;;;;16.70;67.00;;;;;;7323724;19;9225;-57
2024/01/02 07:09:15;;;;;;;;;;;16.60;67.00;;;;;;7323063;19;9676;-57
2024/01/02 07:11:44;;;;;;;;;;;16.60;67.10;;;;;;7323870;19;9443;-57
2024/01/02 07:14:13;;;;;;;;;;;16.60;67.10;;;;;;7323470;19;9319;-58
2024/01/02 07:16:42;;;;;;;;;;;16.50;67.10;;;;;;7323384;19;9531;-57
2024/01/02 07:19:13;;;;;;;;;;;16.50;67.10;;;;;;7323325;19;9450;-57
2024/01/02 07:21:42;;;;;;;;;;;16.50;67.30;;;;;;7323538;19;9265;-58
2024/01/02 07:24:11;;;;;;;;;;;16.40;67.30;;;;;;7323472;19;9211;-57
2024/01/02 07:26:40;;;;;;;;;;;16.40;67.30;;;;;;7324209;19;9464;-57
2024/01/02 07:29:09;;;;;;;;;;;16.30;67.40;;;;;;7323594;19;9230;-58
2024/01/02 07:31:38;;;;;;;;;;;16.30;67.40;;;;;;7323262;19;9462;-57
2024/01/02 07:34:08;;;;;;;;;;;16.30;67.50;;;;;;7322658;19;9688;-57
2024/01/02 07:36:39;;;;;;;;;;;16.30;67.60;;;;;;7323090;19;9401;-57
2024/01/02 07:39:09;;;;;;;;;;;16.20;67.60;;;;;;7323500;19;9171;-57
2024/01/02 07:41:38;;;;;;;;;;;16.20;67.70;;;;;;7322493;19;9223;-57
2024/01/02 07:44:07;;;;;;;;;;;16.20;67.80;;;;;;7323129;19;9658;-57
2024/01/02 07:46:36;;;;;;;;;;;16.10;67.80;;;;;;7325718;19;9216;-57
2024/01/02 07:49:05;;;;;;;;;;;16.10;67.80;;;;;;7337505;19;9469;-57
2024/01/02 07:51:34;;;;;;;;;;;16.10;67.90;;;;;;7336355;19;9435;-57
2024/01/02 07:54:06;;;;;;;;;;;16.00;67.90;;;;;;7336773;19;9525;-56
2024/01/02 07:56:35;;;;;;;;;;;16.00;68.00;;;;;;7335593;19;9530;-57
2024/01/02 07:59:04;;;;;;;;;;;16.00;68.00;;;;;;7336450;19;9230;-57
2024/01/02 08:01:33;;;;;;;;;;;16.00;68.10;;;;;;7336221;19;9473;-57
2024/01/02 08:04:02;;;;;;;;;;;15.90;68.10;;;;;;7335854;19;9421;-57
2024/01/02 08:06:31;;;;;;;;;;;15.90;68.50;;;;;;7335380;19;9520;-58
2024/01/02 08:09:00;;;;;;;;;;;15.90;68.20;;;;;;7337076;19;9390;-57
2024/01/02 08:11:31;;;;;;;;;;;15.90;68.20;;;;;;7336574;19;9457;-57
2024/01/02 08:14:00;;;;;;;;;;;15.90;68.20;;;;;;7334888;19;9473;-57
2024/01/02 08:16:29;;;;;;;;;;;15.90;68.20;;;;;;7336157;19;9518;-57
2024/01/02 08:18:58;;;;;;;;;;;16.00;68.20;;;;;;7334852;19;9160;-57
2024/01/02 08:21:27;;;;;;;;;;;16.00;68.10;;;;;;7335817;19;9402;-57
2024/01/02 08:23:58;;;;;;;;;;;16.10;68.00;;;;;;7334758;19;9717;-58
2024/01/02 08:26:26;;;;;;;;;;;16.20;68.00;;;;;;7335914;19;9456;-57
2024/01/02 08:28:58;;;;;;;;;;;16.20;67.90;;;;;;7334752;19;9280;-57
2024/01/02 08:31:27;;;;;;;;;;;16.30;67.70;;;;;;7335615;19;9462;-57
2024/01/02 08:33:57;;;;;;;;;;;16.40;67.70;;;;;;7335185;19;9441;-57
2024/01/02 08:36:27;;;;;;;;;;;16.40;67.60;;;;;;7335629;19;9305;-57
2024/01/02 08:38:56;;;;;;;;;;;16.50;67.50;;;;;;7334947;19;9240;-57
2024/01/02 08:41:25;;;;;;;;;;;16.50;67.40;;;;;;7334593;19;9463;-57
2024/01/02 08:43:56;;;;;;;;;;;16.60;67.40;;;;;;7334102;19;10602;-57
2024/01/02 08:46:28;;;;;;;;;;;16.60;67.30;;;;;;7334601;19;10656;-57
2024/01/02 08:48:57;;;;;;;;;;;16.70;67.30;;;;;;7335203;19;9433;-58
2024/01/02 08:51:26;;;;;;;;;;;16.70;67.20;;;;;;7334063;19;9492;-57
2024/01/02 08:54:15;;;;;;;;;;;16.70;67.10;;;;;;7332518;19;9517;-57
2024/01/02 08:56:43;;;;;;;;;;;16.70;67.10;;;;;;7334397;19;9564;-57
2024/01/02 08:59:12;;;;;;;;;;;16.80;67.10;;;;;;7328669;19;10828;-57
2024/01/02 09:01:44;;;;;;;;;;;16.70;67.00;;;;;;7326986;19;9564;-57
2024/01/02 09:04:13;;;;;;;;;;;16.70;67.00;;;;;;7326729;19;10800;-57
2024/01/02 09:06:42;;;;;;;;;;;16.70;67.60;;;;;;7326810;19;9714;-57
2024/01/02 09:09:11;;;;;;;;;;;16.70;67.00;;;;;;7326461;19;9226;-57
2024/01/02 09:11:41;;;;;;;;;;;16.70;67.00;;;;;;7326457;19;9409;-57
2024/01/02 09:14:10;;;;;;;;;;;16.70;67.10;;;;;;7326432;19;9013;-57
2024/01/02 09:16:39;;;;;;;;;;;16.70;67.10;;;;;;7326671;19;9395;-57
2024/01/02 09:19:10;;;;;;;;;;;16.60;67.10;;;;;;7326430;19;9192;-57
2024/01/02 09:21:39;;;;;;;;;;;16.60;67.20;;;;;;7327015;19;9301;-57
2024/01/02 09:24:09;;;;;;;;;;;16.60;67.20;;;;;;7326696;19;9729;-57
2024/01/02 09:26:42;;;;;;;;;;;16.50;67.30;;;;;;7325963;19;9598;-57
2024/01/02 09:29:11;;;;;;;;;;;16.50;67.30;;;;;;7325934;19;9488;-57
2024/01/02 09:31:43;;;;;;;;;;;16.50;67.50;;;;;;7327110;19;10755;-57
2024/01/02 09:34:35;;;;;;;;;;;16.40;67.40;;;;;;7325613;19;9032;-55
2024/01/02 09:37:07;;;;;;;;;;;16.40;67.50;;;;;;7325943;19;9457;-57
2024/01/02 09:39:37;;;;;;;;;;;16.40;67.60;;;;;;7326133;19;9441;-57
2024/01/02 09:42:30;;;;;;;;;;;16.30;67.60;;;;;;7325381;19;9354;-57
2024/01/02 09:45:09;;;;;;;;;;;16.30;67.70;;;;;;7325104;19;9337;-58
2024/01/02 09:48:08;;;;;;;;;;;16.30;67.80;;;;;;7325903;19;9470;-57
2024/01/02 09:50:53;;;;;;;;;;;16.20;67.80;;;;;;7326352;19;9338;-57
2024/01/02 09:53:56;;;;;;;;;;;16.20;67.90;;;;;;7325504;19;9504;-57
2024/01/02 09:56:36;;;;;;;;;;;16.10;68.00;;;;;;7324840;19;9334;-57
2024/01/02 09:59:17;;;;;;;;;;;16.10;68.00;;;;;;7325981;19;9505;-57
2024/01/02 10:02:02;;;;;;;;;;;16.10;68.10;;;;;;7325585;19;9461;-57
2024/01/02 10:04:54;;;;;;;;;;;16.10;68.10;;;;;;7324532;19;9437;-57
2024/01/02 10:07:56;;;;;;;;;;;16.00;68.10;;;;;;7325573;19;10314;-57
2024/01/02 10:10:37;;;;;;;;;;;16.00;68.20;;;;;;7324280;19;9686;-57
2024/01/02 10:13:26;;;;;;;;;;;16.00;68.30;;;;;;7325562;19;9462;-57
2024/01/02 10:16:30;;;;;;;;;;;15.90;68.30;;;;;;7324451;19;9309;-57
2024/01/02 10:19:10;;;;;;;;;;;16.00;68.40;;;;;;7324916;19;9293;-57
2024/01/02 10:21:45;;;;;;;;;;;15.90;68.40;;;;;;7324620;19;9399;-57
2024/01/02 10:24:46;;;;;;;;;;;16.00;68.40;;;;;;7324375;19;9184;-57
2024/01/02 10:27:18;;;;;;;;;;;16.00;68.40;;;;;;7324503;19;9300;-57
2024/01/02 10:30:06;;;;;;;;;;;16.10;68.40;;;;;;7326010;19;9585;-57
2024/01/02 10:32:50;;;;;;;;;;;16.10;68.20;;;;;;7325121;19;9641;-57
2024/01/02 10:35:24;;;;;;;;;;;16.20;68.20;;;;;;7324155;19;10671;-57
2024/01/02 10:38:10;;;;;;;;;;;16.20;68.00;;;;;;7325527;19;9253;-57
2024/01/02 10:40:50;;;;;;;;;;;16.30;68.00;;;;;;7325201;19;9326;-58
2024/01/02 10:43:31;;;;;;;;;;;16.40;67.90;;;;;;7324511;19;9370;-57
2024/01/02 10:46:07;;;;;;;;;;;16.40;67.80;;;;;;7324646;19;10641;-57
2024/01/02 10:49:12;;;;;;;;;;;16.50;67.70;;;;;;7323278;19;9225;-57
2024/01/02 10:51:43;;;;;;;;;;;16.60;67.70;;;;;;7324359;19;9581;-57
2024/01/02 10:54:24;;;;;;;;;;;16.60;67.50;;;;;;7324524;19;9517;-57
2024/01/02 10:57:03;;;;;;;;;;;16.70;67.50;;;;;;7325064;19;9431;-57
2024/01/02 10:59:49;;;;;;;;;;;16.70;67.40;;;;;;7323944;19;9422;-57
2024/01/02 11:02:42;;;;;;;;;;;16.70;67.40;;;;;;7324312;19;9441;-57
2024/01/02 11:05:19;;;;;;;;;;;16.80;67.40;;;;;;7324584;19;9145;-57
2024/01/02 11:07:57;;;;;;;;;;;16.80;67.40;;;;;;7323502;19;9305;-57
2024/01/02 11:10:28;;;;;;;;;;;16.80;67.40;;;;;;7323453;19;9427;-56
2024/01/02 11:13:04;;;;;;;;;;;16.80;67.40;;;;;;7323654;19;9242;-57
2024/01/02 11:15:37;;;;;;;;;;;16.80;67.40;;;;;;7323155;19;9424;-57
2024/01/02 11:18:08;;;;;;;;;;;16.80;67.40;;;;;;7323479;19;9421;-57
2024/01/02 11:20:44;;;;;;;;;;;16.70;67.40;;;;;;7321241;19;9500;-57
2024/01/02 11:23:18;;;;;;;;;;;16.70;67.50;;;;;;7322810;19;10325;-57
2024/01/02 11:25:57;;;;;;;;;;;16.70;67.50;;;;;;7322742;19;9198;-57
2024/01/02 11:28:29;;;;;;;;;;;16.70;67.50;;;;;;7323544;19;9273;-57
2024/01/02 11:31:01;;;;;;;;;;;16.60;67.50;;;;;;7322796;19;9263;-57
2024/01/02 11:33:44;;;;;;;;;;;16.60;67.60;;;;;;7321856;19;9503;-57
2024/01/02 11:36:27;;;;;;;;;;;16.60;67.70;;;;;;7323389;19;9225;-57
2024/01/02 11:39:05;;;;;;;;;;;16.50;67.70;;;;;;7322318;19;9222;-57
2024/01/02 11:41:45;;;;;;;;;;;16.50;67.80;;;;;;7322074;19;9485;-57
2024/01/02 11:44:34;;;;;;;;;;;16.50;67.90;;;;;;7322397;19;9484;-58
2024/01/02 11:47:06;;;;;;;;;;;16.40;67.90;;;;;;7322422;19;9326;-57
2024/01/02 11:49:45;;;;;;;;;;;16.40;68.00;;;;;;7322980;19;10311;-57
2024/01/02 11:52:20;;;;;;;;;;;16.40;68.10;;;;;;7322642;19;9590;-57
2024/01/02 11:55:06;;;;;;;;;;;16.40;68.20;;;;;;7322073;19;9188;-57
2024/01/02 11:57:57;;;;;;;;;;;16.30;68.80;;;;;;7320572;19;10485;-57
2024/01/02 12:00:42;;;;;;;;;;;16.30;68.30;;;;;;7322945;19;9362;-57
2024/01/02 12:03:22;;;;;;;;;;;16.30;68.30;;;;;;7321990;19;9583;-57
2024/01/02 12:05:59;;;;;;;;;;;16.30;68.40;;;;;;7321485;19;9679;-57
2024/01/02 12:08:31;;;;;;;;;;;16.20;68.40;;;;;;7322874;19;9242;-57
2024/01/02 12:11:08;;;;;;;;;;;16.20;68.50;;;;;;7321391;19;9461;-57
2024/01/02 12:14:05;;;;;;;;;;;16.20;68.50;;;;;;7322347;19;9628;-57
2024/01/02 12:16:42;;;;;;;;;;;16.20;68.60;;;;;;7321678;19;9418;-57
2024/01/02 12:19:17;;;;;;;;;;;16.20;68.70;;;;;;7320867;19;9462;-57
2024/01/02 12:21:49;;;;;;;;;;;16.10;68.70;;;;;;7321860;19;9334;-57
2024/01/02 12:24:18;;;;;;;;;;;16.10;68.70;;;;;;7321541;19;10685;-57
2024/01/02 12:26:50;;;;;;;;;;;16.10;68.70;;;;;;7322540;19;10671;-57
2024/01/02 12:29:32;;;;;;;;;;;16.10;68.80;;;;;;7320935;19;10335;-57
2024/01/02 12:32:16;;;;;;;;;;;16.10;68.80;;;;;;7320814;19;9192;-57
2024/01/02 12:35:10;;;;;;;;;;;16.00;68.80;;;;;;7325898;19;9499;-57
2024/01/02 12:37:45;;;;;;;;;;;16.00;69.40;;;;;;7328361;19;9661;-57
2024/01/02 12:40:18;;;;;;;;;;;16.00;69.00;;;;;;7326970;19;9664;-57
2024/01/02 12:42:52;;;;;;;;;;;16.00;68.90;;;;;;7327664;19;9347;-57
2024/01/02 12:45:24;;;;;;;;;;;16.00;69.00;;;;;;7326550;19;9547;-57
2024/01/02 12:48:00;;;;;;;;;;;16.00;69.00;;;;;;7328182;19;9294;-57
2024/01/02 12:50:30;;;;;;;;;;;16.10;68.90;;;;;;7328218;19;9293;-57
2024/01/02 12:53:12;;;;;;;;;;;16.10;68.80;;;;;;7327250;19;9647;-57
2024/01/02 12:55:54;;;;;;;;;;;16.10;68.60;;;;;;7327710;19;9393;-57
2024/01/02 12:58:29;;;;;;;;;;;16.30;68.60;;;;;;7327089;19;9421;-58
2024/01/02 13:00:58;;;;;;;;;;;16.30;69.10;;;;;;7327616;19;9243;-57
2024/01/02 13:03:30;;;;;;;;;;;16.40;68.40;;;;;;7327307;19;11383;-57
2024/01/02 13:06:03;;;;;;;;;;;16.40;68.30;;;;;;7326697;19;9190;-58
2024/01/02 13:08:32;;;;;;;;;;;16.50;68.30;;;;;;7328321;19;9448;-57
2024/01/02 13:11:01;;;;;;;;;;;16.60;68.10;;;;;;7327736;19;9396;-57
2024/01/02 13:13:30;;;;;;;;;;;16.60;68.00;;;;;;7326518;19;9642;-57
2024/01/02 13:16:01;;;;;;;;;;;16.70;68.00;;;;;;7326955;19;9501;-57
2024/01/02 13:18:33;;;;;;;;;;;16.70;67.90;;;;;;7326239;19;9663;-57
2024/01/02 13:21:02;;;;;;;;;;;16.70;67.90;;;;;;7327520;19;9219;-57
2024/01/02 13:23:31;;;;;;;;;;;16.70;67.90;;;;;;7327205;19;9525;-57
2024/01/02 13:26:00;;;;;;;;;;;16.70;67.80;;;;;;7326545;19;9493;-57
2024/01/02 13:28:29;;;;;;;;;;;16.70;67.80;;;;;;7326832;19;9298;-57
2024/01/02 13:30:59;;;;;;;;;;;16.70;67.80;;;;;;7326855;19;9286;-57
2024/01/02 13:33:43;;;;;;;;;;;16.70;67.90;;;;;;7325744;19;9137;-57
2024/01/02 13:36:12;;;;;;;;;;;16.70;67.70;;;;;;7326409;19;9206;-57
2024/01/02 13:38:44;;;;;;;;;;;16.70;67.90;;;;;;7325569;19;9235;-57
2024/01/02 13:41:16;;;;;;;;;;;16.70;68.50;;;;;;7327106;19;9202;-57
2024/01/02 13:43:45;;;;;;;;;;;16.70;67.90;;;;;;7325087;19;9340;-57
2024/01/02 13:46:16;;;;;;;;;;;16.60;67.90;;;;;;7325155;19;9413;-57
2024/01/02 13:48:58;;;;;;;;;;;16.60;68.10;;;;;;7325139;19;9246;-57
2024/01/02 13:51:29;;;;;;;;;;;16.60;68.10;;;;;;7324973;19;9179;-57
2024/01/02 13:54:03;;;;;;;;;;;16.50;68.10;;;;;;7326860;19;9187;-57
2024/01/02 13:56:34;;;;;;;;;;;16.50;68.20;;;;;;7325539;19;9581;-58
2024/01/02 13:59:05;;;;;;;;;;;16.50;68.20;;;;;;7326721;19;9289;-57
2024/01/02 14:01:50;;;;;;;;;;;16.50;68.30;;;;;;7324863;19;9294;-57
2024/01/02 14:04:25;;;;;;;;;;;16.40;68.30;;;;;;7321212;19;9282;-57
2024/01/02 14:07:01;;;;;;;;;;;16.40;68.40;;;;;;7325390;19;9241;-57
2024/01/02 14:09:31;;;;;;;;;;;16.40;68.40;;;;;;7324750;19;9216;-57
2024/01/02 14:12:02;;;;;;;;;;;16.30;68.50;;;;;;7326211;19;9335;-57
2024/01/02 14:14:37;;;;;;;;;;;16.30;68.50;;;;;;7324418;19;10398;-57
2024/01/02 14:17:08;;;;;;;;;;;16.30;68.60;;;;;;7324566;19;9645;-57
2024/01/02 14:19:46;;;;;;;;;;;16.20;68.80;;;;;;7325131;19;9478;-57
2024/01/02 14:22:27;;;;;;;;;;;16.30;68.70;;;;;;7323913;19;9301;-57
2024/01/02 14:25:13;;;;;;;;;;;16.20;68.70;;;;;;7324732;19;10407;-57
2024/01/02 14:27:58;;;;;;;;;;;16.20;68.80;;;;;;7325690;19;9269;-57
2024/01/02 14:30:35;;;;;;;;;;;16.20;68.90;;;;;;7324810;19;9829;-57
2024/01/02 14:33:42;;;;;;;;;;;16.10;68.80;;;;;;7325623;19;9236;-57
2024/01/02 14:36:53;;;;;;;;;;;16.10;68.90;;;;;;7324619;19;10185;-57
2024/01/02 14:39:54;;;;;;;;;;;16.10;69.00;;;;;;7324816;19;10954;-57
2024/01/02 14:42:48;;;;;;;;;;;16.10;69.00;;;;;;7324798;19;9211;-57
2024/01/02 14:45:25;;;;;;;;;;;16.00;69.00;;;;;;7323204;19;9539;-57
2024/01/02 14:48:18;;;;;;;;;;;16.00;69.10;;;;;;7324379;19;9603;-57
2024/01/02 14:51:13;;;;;;;;;;;16.00;69.10;;;;;;7325511;19;9195;-57
2024/01/02 14:54:15;;;;;;;;;;;16.00;69.10;;;;;;7325364;19;9519;-57
2024/01/02 14:57:10;;;;;;;;;;;16.00;69.20;;;;;;7324156;19;9430;-57
2024/01/02 14:59:56;;;;;;;;;;;16.00;69.20;;;;;;7323640;19;9573;-57
2024/01/02 15:02:44;;;;;;;;;;;16.00;69.20;;;;;;7324493;19;10355;-56
2024/01/02 15:05:22;;;;;;;;;;;16.00;69.10;;;;;;7324724;19;9500;-57
2024/01/02 15:08:02;;;;;;;;;;;16.10;69.10;;;;;;7322992;19;9261;-57